createdAt,value
2019-06-01T00:01:44.618Z,14.80
2019-06-01T00:04:16.235Z,14.60
2019-06-01T00:06:47.221Z,14.40
2019-06-01T00:09:18.132Z,14.40
2019-06-01T00:11:49.634Z,14.60
2019-06-01T00:14:20.609Z,14.60
2019-06-01T00:16:51.313Z,14.70
2019-06-01T00:19:22.151Z,14.70
2019-06-01T00:21:54.227Z,14.60
2019-06-01T00:24:25.146Z,14.50
2019-06-01T00:26:57.181Z,14.40
2019-06-01T00:29:27.903Z,14.40
2019-06-01T00:31:58.667Z,14.30
2019-06-01T00:34:29.420Z,14.20
2019-06-01T00:37:00.103Z,14.30
2019-06-01T00:39:30.760Z,14.20
2019-06-01T00:42:03.161Z,14.10
2019-06-01T00:44:33.811Z,14.00
2019-06-01T00:47:04.922Z,14.00
2019-06-01T00:49:35.959Z,14.10
2019-06-01T00:52:06.747Z,14.10
2019-06-01T00:54:37.617Z,14.10
2019-06-01T00:57:08.551Z,14.20
2019-06-01T00:59:39.311Z,14.40
2019-06-01T01:02:10.274Z,14.30
2019-06-01T01:04:40.974Z,14.50
2019-06-01T01:07:11.868Z,14.50
2019-06-01T01:09:42.684Z,14.40
2019-06-01T01:12:14.179Z,14.60
2019-06-01T01:14:45.176Z,14.70
2019-06-01T01:17:15.850Z,14.60
2019-06-01T01:19:47.649Z,14.50
2019-06-01T01:22:18.641Z,14.50
2019-06-01T01:24:50.488Z,14.60
2019-06-01T01:27:21.538Z,14.50
2019-06-01T01:29:53.160Z,14.30
2019-06-01T01:32:24.995Z,14.50
2019-06-01T01:34:55.850Z,14.30
2019-06-01T01:37:26.498Z,14.20
2019-06-01T01:39:58.572Z,14.30
2019-06-01T01:42:29.320Z,14.20
2019-06-01T01:45:00.277Z,14.10
2019-06-01T01:47:31.134Z,14.10
2019-06-01T01:50:03.075Z,14.20
2019-06-01T01:52:33.905Z,14.30
2019-06-01T01:55:05.563Z,14.50
2019-06-01T01:57:36.601Z,14.30
2019-06-01T02:00:08.596Z,14.30
2019-06-01T02:02:39.813Z,14.40
2019-06-01T02:05:10.786Z,14.40
2019-06-01T02:07:41.510Z,14.20
2019-06-01T02:10:12.701Z,14.30
2019-06-01T02:12:44.176Z,14.30
2019-06-01T02:15:16.054Z,14.20
2019-06-01T02:17:46.665Z,13.90
2019-06-01T02:20:17.512Z,13.80
2019-06-01T02:22:48.322Z,13.90
2019-06-01T02:25:19.285Z,13.90
2019-06-01T02:27:50.198Z,13.90
2019-06-01T02:30:21.239Z,13.40
2019-06-01T02:32:53.653Z,13.70
2019-06-01T02:35:25.670Z,13.60
2019-06-01T02:37:58.627Z,13.60
2019-06-01T02:40:29.810Z,13.70
2019-06-01T02:43:01.379Z,13.60
2019-06-01T02:45:33.050Z,13.50
2019-06-01T02:48:03.965Z,13.30
2019-06-01T02:50:36.500Z,13.30
2019-06-01T02:53:08.859Z,13.30
2019-06-01T02:55:39.648Z,13.30
2019-06-01T02:58:10.563Z,13.20
2019-06-01T03:01:30.078Z,13.20
2019-06-01T03:04:01.570Z,13.20
2019-06-01T03:06:36.865Z,13.40
2019-06-01T03:09:09.319Z,13.40
2019-06-01T03:11:42.017Z,13.60
2019-06-01T03:14:13.950Z,13.90
2019-06-01T03:16:44.870Z,14.00
2019-06-01T03:19:19.433Z,13.80
2019-06-01T03:21:51.779Z,13.40
2019-06-01T03:24:26.152Z,13.30
2019-06-01T03:26:58.359Z,13.50
2019-06-01T03:29:32.972Z,13.70
2019-06-01T03:32:23.776Z,13.70
2019-06-01T03:34:36.435Z,13.80
2019-06-01T03:37:07.142Z,13.90
2019-06-01T03:39:38.052Z,13.80
2019-06-01T03:42:09.505Z,13.60
2019-06-01T03:44:40.143Z,13.50
2019-06-01T03:47:11.897Z,13.40
2019-06-01T03:49:42.645Z,13.40
2019-06-01T03:52:13.633Z,13.40
2019-06-01T03:54:44.504Z,13.70
2019-06-01T03:57:15.249Z,13.70
2019-06-01T03:59:46.187Z,13.70
2019-06-01T04:02:17.178Z,13.50
2019-06-01T04:04:48.056Z,13.30
2019-06-01T04:07:20.245Z,13.30
2019-06-01T04:09:50.979Z,13.30
2019-06-01T04:12:22.750Z,13.60
2019-06-01T04:14:53.595Z,13.50
2019-06-01T04:17:24.202Z,13.50
2019-06-01T04:19:55.226Z,13.30
2019-06-01T04:22:25.952Z,13.10
2019-06-01T04:24:56.799Z,13.00
2019-06-01T04:27:27.516Z,12.90
2019-06-01T04:29:58.166Z,12.90
2019-06-01T04:32:29.016Z,12.90
2019-06-01T04:34:59.911Z,12.90
2019-06-01T04:37:30.647Z,12.90
2019-06-01T04:40:01.523Z,12.90
2019-06-01T04:42:32.462Z,12.90
2019-06-01T04:45:04.360Z,12.80
2019-06-01T04:47:35.228Z,12.70
2019-06-01T04:50:06.687Z,12.60
2019-06-01T04:52:38.344Z,12.70
2019-06-01T04:55:09.263Z,12.70
2019-06-01T04:57:40.254Z,12.80
2019-06-01T05:00:25.034Z,12.70
2019-06-01T05:02:43.769Z,12.80
2019-06-01T05:05:15.466Z,12.80
2019-06-01T05:07:46.446Z,12.80
2019-06-01T05:10:17.267Z,12.90
2019-06-01T05:12:48.137Z,13.00
2019-06-01T05:15:19.207Z,13.10
2019-06-01T05:17:49.807Z,13.10
2019-06-01T05:20:20.715Z,13.00
2019-06-01T05:22:51.313Z,12.90
2019-06-01T05:25:22.214Z,13.00
2019-06-01T05:27:53.046Z,13.00
2019-06-01T05:30:23.852Z,13.20
2019-06-01T05:32:54.493Z,13.30
2019-06-01T05:35:25.339Z,13.20
2019-06-01T05:37:56.068Z,13.30
2019-06-01T05:40:26.863Z,13.20
2019-06-01T05:42:57.942Z,13.00
2019-06-01T05:45:28.894Z,13.00
2019-06-01T05:47:59.797Z,13.20
2019-06-01T05:50:30.615Z,13.40
2019-06-01T05:53:01.626Z,13.60
2019-06-01T05:55:32.521Z,13.60
2019-06-01T05:58:03.168Z,13.70
2019-06-01T06:00:43.950Z,13.80
2019-06-01T06:03:18.147Z,13.80
2019-06-01T06:05:47.248Z,13.80
2019-06-01T06:08:18.161Z,13.90
2019-06-01T06:10:49.025Z,13.90
2019-06-01T06:13:19.849Z,13.90
2019-06-01T06:15:50.807Z,14.10
2019-06-01T06:18:22.920Z,14.00
2019-06-01T06:20:53.867Z,14.20
2019-06-01T06:23:24.639Z,14.40
2019-06-01T06:25:55.657Z,14.60
2019-06-01T06:28:26.827Z,14.70
2019-06-01T06:30:57.634Z,15.00
2019-06-01T06:33:28.372Z,15.10
2019-06-01T06:35:59.492Z,15.30
2019-06-01T06:38:30.153Z,15.20
2019-06-01T06:41:00.988Z,15.60
2019-06-01T06:43:33.302Z,15.70
2019-06-01T06:48:53.699Z,16.30
2019-06-01T06:51:25.537Z,16.30
2019-06-01T06:53:56.392Z,16.20
2019-06-01T06:56:27.457Z,16.20
2019-06-01T06:58:58.268Z,16.20
2019-06-01T07:01:29.266Z,16.20
2019-06-01T07:04:12.392Z,16.30
2019-06-01T07:06:32.686Z,16.30
2019-06-01T07:09:03.704Z,16.50
2019-06-01T07:11:34.541Z,16.60
2019-06-01T07:14:05.377Z,16.80
2019-06-01T07:16:36.366Z,17.20
2019-06-01T07:19:06.949Z,17.20
2019-06-01T07:21:38.358Z,17.30
2019-06-01T07:24:09.256Z,17.40
2019-06-01T07:26:39.970Z,17.50
2019-06-01T07:29:10.722Z,17.50
2019-06-01T07:31:41.325Z,17.40
2019-06-01T07:34:27.105Z,17.60
2019-06-01T07:36:44.666Z,17.60
2019-06-01T07:39:15.510Z,17.60
2019-06-01T07:41:46.286Z,17.60
2019-06-01T07:44:17.200Z,17.60
2019-06-01T07:46:47.808Z,17.60
2019-06-01T07:49:20.935Z,17.60
2019-06-01T07:51:52.996Z,17.90
2019-06-01T07:54:24.851Z,17.90
2019-06-01T07:56:55.497Z,17.90
2019-06-01T07:59:28.280Z,18.10
2019-06-01T08:01:59.315Z,18.30
2019-06-01T08:04:47.559Z,18.20
2019-06-01T08:07:02.722Z,18.30
2019-06-01T08:09:33.931Z,18.30
2019-06-01T08:12:04.759Z,18.40
2019-06-01T08:14:35.613Z,18.40
2019-06-01T08:17:06.535Z,18.50
2019-06-01T08:19:37.200Z,18.50
2019-06-01T08:22:08.426Z,18.50
2019-06-01T08:24:39.221Z,18.70
2019-06-01T08:27:10.188Z,18.90
2019-06-01T08:29:41.208Z,19.10
2019-06-01T08:32:12.059Z,19.50
2019-06-01T08:34:43.116Z,19.50
2019-06-01T08:37:14.028Z,19.50
2019-06-01T08:39:45.028Z,19.50
2019-06-01T08:42:16.053Z,19.50
2019-06-01T08:44:46.656Z,19.80
2019-06-01T08:47:17.296Z,19.80
2019-06-01T08:49:47.990Z,19.70
2019-06-01T08:52:18.870Z,19.80
2019-06-01T08:54:49.767Z,19.80
2019-06-01T08:57:20.528Z,19.90
2019-06-01T08:59:51.207Z,19.80
2019-06-01T09:02:22.804Z,20.10
2019-06-01T09:04:53.465Z,20.50
2019-06-01T09:07:24.856Z,20.80
2019-06-01T09:09:55.850Z,20.60
2019-06-01T09:12:27.258Z,20.70
2019-06-01T09:14:58.173Z,20.70
2019-06-01T09:17:29.427Z,20.70
2019-06-01T09:20:00.193Z,20.90
2019-06-01T09:22:31.576Z,20.80
2019-06-01T09:25:02.335Z,21.00
2019-06-01T09:27:33.996Z,21.00
2019-06-01T09:30:05.785Z,21.00
2019-06-01T09:32:36.639Z,21.20
2019-06-01T09:35:07.648Z,21.20
2019-06-01T09:37:39.581Z,21.20
2019-06-01T09:40:10.440Z,21.10
2019-06-01T09:42:41.131Z,21.40
2019-06-01T09:45:12.091Z,21.60
2019-06-01T09:47:43.201Z,21.80
2019-06-01T09:50:14.229Z,22.00
2019-06-01T09:52:45.125Z,22.00
2019-06-01T09:55:16.002Z,22.20
2019-06-01T09:57:47.032Z,22.20
2019-06-01T10:00:20.870Z,22.40
2019-06-01T10:02:51.575Z,22.80
2019-06-01T10:05:22.564Z,22.80
2019-06-01T10:07:53.346Z,22.70
2019-06-01T10:10:24.254Z,23.00
2019-06-01T10:12:55.021Z,23.20
2019-06-01T10:15:25.813Z,23.40
2019-06-01T10:17:56.471Z,23.50
2019-06-01T10:23:16.641Z,23.60
2019-06-01T10:25:47.279Z,23.20
2019-06-01T10:28:17.921Z,23.40
2019-06-01T10:30:48.695Z,23.60
2019-06-01T10:33:19.336Z,23.60
2019-06-01T10:35:50.060Z,23.60
2019-06-01T10:38:21.789Z,23.50
2019-06-01T10:40:52.764Z,23.50
2019-06-01T10:43:23.782Z,23.20
2019-06-01T10:45:54.423Z,23.30
2019-06-01T10:48:25.095Z,23.20
2019-06-01T10:50:56.923Z,23.40
2019-06-01T10:53:27.618Z,23.70
2019-06-01T10:55:58.276Z,23.70
2019-06-01T10:58:29.084Z,23.80
2019-06-01T11:00:59.829Z,23.70
2019-06-01T11:03:30.546Z,23.50
2019-06-01T11:06:01.303Z,23.50
2019-06-01T11:08:32.834Z,23.50
2019-06-01T11:11:03.852Z,23.60
2019-06-01T11:13:35.022Z,24.00
2019-06-01T11:16:05.889Z,24.10
2019-06-01T11:18:37.479Z,24.10
2019-06-01T11:21:08.280Z,24.10
2019-06-01T11:23:42.743Z,24.10
2019-06-01T11:26:11.815Z,24.30
2019-06-01T11:28:42.447Z,24.40
2019-06-01T11:31:13.312Z,24.50
2019-06-01T11:33:44.334Z,24.60
2019-06-01T11:36:14.995Z,24.80
2019-06-01T11:38:45.746Z,24.80
2019-06-01T11:41:18.633Z,24.80
2019-06-01T11:43:48.928Z,24.60
2019-06-01T11:46:19.527Z,24.60
2019-06-01T11:48:51.385Z,24.90
2019-06-01T11:51:23.291Z,25.20
2019-06-01T11:56:43.343Z,25.50
2019-06-01T11:59:14.082Z,25.50
2019-06-01T12:01:46.027Z,25.10
2019-06-01T12:04:16.782Z,25.10
2019-06-01T12:06:47.520Z,25.00
2019-06-01T12:09:18.116Z,25.40
2019-06-01T12:11:48.735Z,25.60
2019-06-01T12:14:19.338Z,25.80
2019-06-01T12:16:50.378Z,25.80
2019-06-01T12:22:02.926Z,26.00
2019-06-01T12:24:33.521Z,25.90
2019-06-01T12:27:04.191Z,26.10
2019-06-01T12:29:34.845Z,25.90
2019-06-01T12:32:05.465Z,26.30
2019-06-01T12:34:36.084Z,26.40
2019-06-01T12:37:06.694Z,26.30
2019-06-01T12:39:38.300Z,26.60
2019-06-01T12:42:08.992Z,26.70
2019-06-01T12:44:39.792Z,26.90
2019-06-01T12:47:10.396Z,27.20
2019-06-01T12:49:42.192Z,26.90
2019-06-01T12:55:01.831Z,26.80
2019-06-01T12:57:32.609Z,26.70
2019-06-01T13:00:03.358Z,26.80
2019-06-01T13:02:34.139Z,27.00
2019-06-01T13:05:05.542Z,27.00
2019-06-01T13:07:51.161Z,26.50
2019-06-01T13:10:09.232Z,26.10
2019-06-01T13:12:41.082Z,26.10
2019-06-01T13:15:13.493Z,25.90
2019-06-01T13:17:45.283Z,26.30
2019-06-01T13:20:16.208Z,26.70
2019-06-01T13:22:47.711Z,27.10
2019-06-01T13:25:18.445Z,27.40
2019-06-01T13:27:50.494Z,28.30
2019-06-01T13:30:22.265Z,28.20
2019-06-01T13:32:53.012Z,28.60
2019-06-01T13:35:23.619Z,29.20
2019-06-01T13:38:10.963Z,29.50
2019-06-01T13:40:26.522Z,30.40
2019-06-01T13:42:57.293Z,30.60
2019-06-01T13:45:27.919Z,30.50
2019-06-01T13:47:58.557Z,29.70
2019-06-01T13:50:29.266Z,30.00
2019-06-01T13:52:59.952Z,30.90
2019-06-01T13:55:30.628Z,31.70
2019-06-01T13:58:01.325Z,32.20
2019-06-01T14:00:32.023Z,31.80
2019-06-01T14:03:02.679Z,31.40
2019-06-01T14:05:34.353Z,31.30
2019-06-01T14:08:04.954Z,31.60
2019-06-01T14:10:35.607Z,31.90
2019-06-01T14:13:06.307Z,32.10
2019-06-01T14:15:37.031Z,32.30
2019-06-01T14:18:07.633Z,34.00
2019-06-01T14:20:38.289Z,34.10
2019-06-01T14:23:08.900Z,33.30
2019-06-01T14:25:39.552Z,32.50
2019-06-01T14:28:10.229Z,32.50
2019-06-01T14:33:37.248Z,33.70
2019-06-01T14:36:07.891Z,34.00
2019-06-01T14:38:46.881Z,34.20
2019-06-01T14:41:10.823Z,33.90
2019-06-01T14:43:41.487Z,34.90
2019-06-01T14:46:12.568Z,34.60
2019-06-01T14:48:43.185Z,35.10
2019-06-01T14:51:13.811Z,35.00
2019-06-01T14:53:44.446Z,35.00
2019-06-01T14:56:15.146Z,35.30
2019-06-01T14:58:45.846Z,35.00
2019-06-01T15:01:31.386Z,35.40
2019-06-01T15:03:48.743Z,35.60
2019-06-01T15:06:20.998Z,35.70
2019-06-01T15:09:13.176Z,35.00
2019-06-01T15:11:23.988Z,34.20
2019-06-01T15:13:54.702Z,34.70
2019-06-01T15:16:25.348Z,34.60
2019-06-01T15:18:56.165Z,34.20
2019-06-01T15:21:26.813Z,34.40
2019-06-01T15:23:58.773Z,33.80
2019-06-01T15:26:29.432Z,33.40
2019-06-01T15:29:00.064Z,33.80
2019-06-01T15:31:30.705Z,34.60
2019-06-01T15:34:01.813Z,34.30
2019-06-01T15:36:32.622Z,34.80
2019-06-01T15:39:04.385Z,35.50
2019-06-01T15:41:35.398Z,34.30
2019-06-01T15:44:06.322Z,34.50
2019-06-01T15:46:37.088Z,35.30
2019-06-01T15:49:08.826Z,35.70
2019-06-01T15:51:39.546Z,35.30
2019-06-01T15:54:10.520Z,35.20
2019-06-01T15:56:41.177Z,35.60
2019-06-01T15:59:11.816Z,36.20
2019-06-01T16:01:42.429Z,35.80
2019-06-01T16:04:13.110Z,34.70
2019-06-01T16:06:43.719Z,34.50
2019-06-01T16:09:14.375Z,34.60
2019-06-01T16:11:44.977Z,34.80
2019-06-01T16:14:15.653Z,34.50
2019-06-01T16:16:46.274Z,33.90
2019-06-01T16:19:16.920Z,33.80
2019-06-01T16:21:47.582Z,34.20
2019-06-01T16:24:18.171Z,35.20
2019-06-01T16:26:48.842Z,35.20
2019-06-01T16:29:19.470Z,35.20
2019-06-01T16:31:50.178Z,34.90
2019-06-01T16:34:20.756Z,34.90
2019-06-01T16:36:51.420Z,34.40
2019-06-01T16:39:22.013Z,34.20
2019-06-01T16:41:52.740Z,33.80
2019-06-01T16:44:23.409Z,32.80
2019-06-01T16:46:54.073Z,31.80
2019-06-01T16:49:27.228Z,31.20
2019-06-01T16:51:59.197Z,31.00
2019-06-01T16:54:29.852Z,30.40
2019-06-01T16:57:00.592Z,30.60
2019-06-01T16:59:31.190Z,30.90
2019-06-01T17:02:03.209Z,31.60
2019-06-01T17:04:34.930Z,31.80
2019-06-01T17:07:08.553Z,32.30
2019-06-01T17:09:38.087Z,32.40
2019-06-01T17:12:08.708Z,32.40
2019-06-01T17:14:39.361Z,32.30
2019-06-01T17:17:10.037Z,33.00
2019-06-01T17:19:40.715Z,33.40
2019-06-01T17:22:11.349Z,34.50
2019-06-01T17:24:42.051Z,34.50
2019-06-01T17:27:12.747Z,34.20
2019-06-01T17:29:43.440Z,34.20
2019-06-01T17:32:23.956Z,32.50
2019-06-01T17:34:46.433Z,31.20
2019-06-01T17:37:17.076Z,30.30
2019-06-01T17:39:47.691Z,29.40
2019-06-01T17:45:14.341Z,28.60
2019-06-01T17:47:44.988Z,28.80
2019-06-01T17:50:18.235Z,30.50
2019-06-01T17:52:48.410Z,32.40
2019-06-01T17:55:32.984Z,32.70
2019-06-01T17:58:03.835Z,33.20
2019-06-01T18:00:34.650Z,34.10
2019-06-01T18:03:07.956Z,33.60
2019-06-01T18:05:39.193Z,33.10
2019-06-01T18:08:10.379Z,32.50
2019-06-01T18:10:53.483Z,32.10
2019-06-01T18:13:14.012Z,31.80
2019-06-01T18:15:44.801Z,31.90
2019-06-01T18:18:15.476Z,32.10
2019-06-01T18:20:46.427Z,32.30
2019-06-01T18:23:17.071Z,32.80
2019-06-01T18:25:48.068Z,32.80
2019-06-01T18:28:19.845Z,33.00
2019-06-01T18:30:51.438Z,32.20
2019-06-01T18:33:23.239Z,30.90
2019-06-01T18:35:54.272Z,30.10
2019-06-01T18:38:25.158Z,28.90
2019-06-01T18:41:08.772Z,28.40
2019-06-01T18:43:28.253Z,27.80
2019-06-01T18:48:47.943Z,27.70
2019-06-01T18:51:18.665Z,27.60
2019-06-01T18:53:49.989Z,27.60
2019-06-01T18:56:23.107Z,27.40
2019-06-01T18:58:54.016Z,27.10
2019-06-01T19:01:24.844Z,26.90
2019-06-01T19:03:55.525Z,26.80
2019-06-01T19:06:26.318Z,26.70
2019-06-01T19:08:57.696Z,26.60
2019-06-01T19:11:35.693Z,26.30
2019-06-01T19:14:00.604Z,26.10
2019-06-01T19:16:31.350Z,25.90
2019-06-01T19:19:02.119Z,25.70
2019-06-01T19:21:32.925Z,25.60
2019-06-01T19:24:03.621Z,25.50
2019-06-01T19:26:34.333Z,25.40
2019-06-01T19:29:06.638Z,25.40
2019-06-01T19:31:37.653Z,25.30
2019-06-01T19:34:08.876Z,25.40
2019-06-01T19:36:40.790Z,25.20
2019-06-01T19:39:11.750Z,25.10
2019-06-01T19:41:45.238Z,24.80
2019-06-01T19:44:15.826Z,24.60
2019-06-01T19:46:46.688Z,24.50
2019-06-01T19:49:18.985Z,24.30
2019-06-01T19:51:49.844Z,24.20
2019-06-01T19:54:20.771Z,24.10
2019-06-01T19:56:51.460Z,24.00
2019-06-01T19:59:22.248Z,23.80
2019-06-01T20:01:53.105Z,23.50
2019-06-01T20:04:23.825Z,23.30
2019-06-01T20:06:54.514Z,23.20
2019-06-01T20:09:25.179Z,23.00
2019-06-01T20:12:01.986Z,23.10
2019-06-01T20:14:29.127Z,22.90
2019-06-01T20:16:59.955Z,22.70
2019-06-01T20:19:30.595Z,22.60
2019-06-01T20:22:01.350Z,22.40
2019-06-01T20:24:31.945Z,22.20
2019-06-01T20:27:02.644Z,22.10
2019-06-01T20:29:33.424Z,22.10
2019-06-01T20:32:04.366Z,22.10
2019-06-01T20:34:35.077Z,22.10
2019-06-01T20:37:05.840Z,22.10
2019-06-01T20:39:36.528Z,22.10
2019-06-01T20:42:20.831Z,22.10
2019-06-01T20:44:39.902Z,22.20
2019-06-01T20:47:10.636Z,22.10
2019-06-01T20:49:41.316Z,22.10
2019-06-01T20:52:12.708Z,22.10
2019-06-01T20:54:44.461Z,22.00
2019-06-01T20:57:17.462Z,21.90
2019-06-01T20:59:48.230Z,21.90
2019-06-01T21:02:19.881Z,21.70
2019-06-01T21:04:50.519Z,21.70
2019-06-01T21:07:22.244Z,21.60
2019-06-01T21:09:52.965Z,21.60
2019-06-01T21:12:42.616Z,21.50
2019-06-01T21:14:55.863Z,21.50
2019-06-01T21:17:26.599Z,21.40
2019-06-01T21:19:57.403Z,21.40
2019-06-01T21:22:28.112Z,21.40
2019-06-01T21:27:55.393Z,21.40
2019-06-01T21:30:26.049Z,21.30
2019-06-01T21:35:46.026Z,21.40
2019-06-01T21:38:17.248Z,21.40
2019-06-01T21:40:48.015Z,21.30
2019-06-01T21:43:26.019Z,21.20
2019-06-01T21:45:51.119Z,21.20
2019-06-01T21:48:21.778Z,21.10
2019-06-01T21:50:52.394Z,21.00
2019-06-01T21:53:24.413Z,20.80
2019-06-01T21:55:56.038Z,20.70
2019-06-01T21:58:27.695Z,20.50
2019-06-01T22:00:58.453Z,20.50
2019-06-01T22:03:29.116Z,20.30
2019-06-01T22:05:59.748Z,20.30
2019-06-01T22:08:30.342Z,20.20
2019-06-01T22:11:01.500Z,20.20
2019-06-01T22:13:32.167Z,20.10
2019-06-01T22:16:02.865Z,19.90
2019-06-01T22:18:33.527Z,19.90
2019-06-01T22:21:04.183Z,20.00
2019-06-01T22:23:34.812Z,19.90
2019-06-01T22:26:05.648Z,19.90
2019-06-01T22:28:36.354Z,19.80
2019-06-01T22:31:07.038Z,19.80
2019-06-01T22:33:37.763Z,19.70
2019-06-01T22:36:08.425Z,19.60
2019-06-01T22:38:39.032Z,19.50
2019-06-01T22:41:09.705Z,19.60
2019-06-01T22:43:46.568Z,19.60
2019-06-01T22:46:12.765Z,19.50
2019-06-01T22:48:43.409Z,19.40
2019-06-01T22:51:14.097Z,19.40
2019-06-01T22:53:44.814Z,19.40
2019-06-01T22:59:11.746Z,19.30
2019-06-01T23:01:42.462Z,19.20
2019-06-01T23:04:13.114Z,19.30
2019-06-01T23:06:43.868Z,19.50
2019-06-01T23:09:15.560Z,19.40
2019-06-01T23:11:46.196Z,19.40
2019-06-01T23:17:12.780Z,19.40
2019-06-01T23:19:43.549Z,19.40
2019-06-01T23:22:14.219Z,19.30
2019-06-01T23:24:44.941Z,19.30
2019-06-01T23:27:15.578Z,19.30
2019-06-01T23:29:46.336Z,19.30
2019-06-01T23:32:17.073Z,19.20
2019-06-01T23:34:47.679Z,19.20
2019-06-01T23:37:18.387Z,19.20
2019-06-01T23:39:49.193Z,19.10
2019-06-01T23:42:19.860Z,19.20
2019-06-01T23:44:50.512Z,19.20
2019-06-01T23:47:23.022Z,19.10
2019-06-01T23:49:53.654Z,19.00
2019-06-01T23:52:25.490Z,18.90
2019-06-01T23:54:56.275Z,18.90
2019-06-01T23:57:27.925Z,18.80
2019-06-01T23:59:58.634Z,18.80
